Weather at Huevar 2 [CLOSED]

Public forecast

Using degrees Celsius for public forecast. Weather courtesy of forecast.io.

Closest aviation weather report (METAR) to Huevar 2

Report is more than 2 hours old.

Closest report is Base Aérea de El Copero, 12.8 nm (23.6 km) ESE.

2024/06/20 13:00 (retrieved 4 hours ago)

LEEC 201300Z VRB05KT CAVOK 24/11 Q1019

Closest aviation forecast (TAF) to Huevar 2

Forecast is more than 6 hours old.

Closest forecast is Base Aérea de El Copero, 12.8 nm (23.6 km) ESE.

2024/06/20 09:00 (retrieved 8 hours ago)

TAF LEEC 200800Z 2009/2109 25010KT CAVOK TX27/2015Z TN14/2106Z BECMG 2020/2022 VRB02KT